Time;durP1;ratioP1;P1;durP2;ratioP2;P2;SDS_P1;SDS_P2;PMS_P1;PMS_P2;Temp;Humidity;BMP_temperature;BMP_pressure;BME280_temperature;BME280_humidity;BME280_pressure;Samples;Min_cycle;Max_cycle;Signal;HPM_P1;HPM_P2
2021/07/21 00:00:47;;;;;;;7.13;5.57;;;15.20;99.90;;;;;;5072437;28;20162;-71
2021/07/21 00:03:13;;;;;;;8.63;5.70;;;15.20;99.90;;;;;;5071504;28;20225;-70
2021/07/21 00:05:39;;;;;;;8.70;6.30;;;15.20;99.90;;;;;;5072344;28;20474;-70
2021/07/21 00:08:05;;;;;;;7.57;5.70;;;15.20;99.90;;;;;;5072286;28;20266;-71
2021/07/21 00:10:32;;;;;;;7.47;5.30;;;15.20;99.90;;;;;;5071916;28;20397;-70
2021/07/21 00:18:37;;;;;;;7.20;5.80;;;15.10;99.90;;;;;;5051375;28;20417;-70
2021/07/21 00:21:03;;;;;;;8.40;6.50;;;15.00;99.90;;;;;;5065243;28;20416;-70
2021/07/21 00:23:29;;;;;;;7.10;5.60;;;15.00;99.90;;;;;;5072078;28;20536;-70
2021/07/21 00:25:56;;;;;;;12.20;6.10;;;15.00;99.90;;;;;;5072177;28;20391;-70
2021/07/21 00:28:22;;;;;;;6.43;5.83;;;15.00;99.90;;;;;;5072170;28;20190;-70
2021/07/21 00:30:47;;;;;;;7.87;4.90;;;14.90;99.90;;;;;;5072107;28;20419;-70
2021/07/21 00:33:14;;;;;;;7.90;5.97;;;14.90;99.90;;;;;;5072161;28;20207;-70
2021/07/21 00:35:39;;;;;;;7.90;5.83;;;14.90;99.90;;;;;;5072418;28;20243;-70
2021/07/21 00:38:05;;;;;;;5.50;4.93;;;14.90;99.90;;;;;;5071693;28;20412;-70
2021/07/21 00:40:31;;;;;;;7.33;5.97;;;14.90;99.90;;;;;;5072103;28;20667;-70
2021/07/21 00:42:57;;;;;;;6.50;5.73;;;14.90;99.90;;;;;;5072205;28;20276;-70
2021/07/21 00:45:22;;;;;;;6.60;5.13;;;14.80;99.90;;;;;;5076365;28;20227;-70
2021/07/21 00:47:48;;;;;;;5.60;5.00;;;14.80;99.90;;;;;;5076061;28;20392;-70
2021/07/21 00:50:14;;;;;;;7.77;6.37;;;14.80;99.90;;;;;;5075759;28;20157;-70
2021/07/21 00:52:41;;;;;;;8.63;6.27;;;14.70;99.90;;;;;;5075906;28;20157;-70
2021/07/21 00:55:10;;;;;;;7.63;5.60;;;14.70;99.90;;;;;;5075419;28;20176;-70
2021/07/21 00:57:37;;;;;;;8.13;6.80;;;14.70;99.90;;;;;;5075787;28;20430;-70
2021/07/21 01:00:05;;;;;;;7.27;6.43;;;14.70;99.90;;;;;;5075659;28;20435;-70
2021/07/21 01:02:31;;;;;;;7.13;6.43;;;14.60;99.90;;;;;;5075909;28;20538;-70
2021/07/21 01:04:56;;;;;;;11.67;6.93;;;14.60;99.90;;;;;;5059396;28;20831;-70
2021/07/21 01:07:22;;;;;;;8.70;6.13;;;14.60;99.90;;;;;;5071843;28;20218;-70
2021/07/21 01:09:48;;;;;;;8.53;6.30;;;14.60;99.90;;;;;;5075531;28;20243;-70
2021/07/21 01:17:51;;;;;;;6.10;4.67;;;14.50;99.90;;;;;;5069747;28;20608;-71
2021/07/21 01:25:54;;;;;;;8.37;6.27;;;14.40;99.90;;;;;;5069549;28;20525;-70
2021/07/21 01:28:21;;;;;;;7.27;6.57;;;14.40;99.90;;;;;;5063625;28;20502;-71
2021/07/21 01:30:49;;;;;;;7.17;5.30;;;14.40;99.90;;;;;;5049615;28;20389;-70
2021/07/21 01:33:16;;;;;;;10.40;7.20;;;14.30;99.90;;;;;;5051907;28;20376;-70
2021/07/21 01:35:51;;;;;;;8.00;5.80;;;14.30;99.90;;;;;;5069612;28;20393;-71
2021/07/21 01:38:23;;;;;;;7.87;6.07;;;14.30;99.90;;;;;;5069571;28;20796;-71
2021/07/21 01:40:54;;;;;;;8.70;6.00;;;14.30;99.90;;;;;;5069366;28;20387;-71
2021/07/21 01:43:22;;;;;;;7.70;6.17;;;14.30;99.90;;;;;;5069208;28;20389;-71
2021/07/21 01:45:51;;;;;;;7.00;6.17;;;14.30;99.90;;;;;;5067508;28;20404;-70
2021/07/21 01:48:19;;;;;;;8.03;5.13;;;14.30;99.90;;;;;;5069513;28;20401;-70
2021/07/21 01:50:45;;;;;;;10.10;5.17;;;14.20;99.90;;;;;;5069517;28;20382;-70
2021/07/21 01:53:12;;;;;;;7.40;5.87;;;14.20;99.90;;;;;;5069391;28;20751;-70
2021/07/21 01:55:39;;;;;;;7.87;5.70;;;14.20;99.90;;;;;;5069085;28;20391;-71
2021/07/21 01:58:05;;;;;;;9.10;5.67;;;14.10;99.90;;;;;;5068870;28;20902;-71
2021/07/21 02:00:33;;;;;;;8.87;6.23;;;14.10;99.90;;;;;;5068976;28;20426;-71
2021/07/21 02:02:59;;;;;;;8.37;5.97;;;14.10;99.90;;;;;;5060366;28;20415;-70
2021/07/21 02:05:26;;;;;;;6.87;6.00;;;14.10;99.90;;;;;;5048736;28;20452;-70
2021/07/21 02:07:54;;;;;;;10.77;7.57;;;14.10;99.90;;;;;;5048659;28;20387;-70
2021/07/21 02:10:22;;;;;;;7.23;5.97;;;14.10;99.90;;;;;;5049116;28;20751;-70
2021/07/21 02:12:52;;;;;;;8.00;5.43;;;14.00;99.90;;;;;;5062343;28;20903;-70
2021/07/21 02:15:19;;;;;;;8.20;6.27;;;14.00;99.90;;;;;;5069446;28;20393;-69
2021/07/21 02:17:45;;;;;;;7.63;6.40;;;13.90;99.90;;;;;;5069878;28;20406;-69
2021/07/21 02:20:12;;;;;;;6.70;6.00;;;13.90;99.90;;;;;;5057996;28;20415;-70
2021/07/21 02:22:40;;;;;;;10.23;6.33;;;13.90;99.90;;;;;;5049274;28;20486;-70
2021/07/21 02:25:07;;;;;;;7.83;6.63;;;13.90;99.90;;;;;;5048412;28;20462;-70
2021/07/21 02:27:32;;;;;;;9.50;6.80;;;13.90;99.90;;;;;;5048577;28;20837;-69
2021/07/21 02:29:58;;;;;;;8.07;6.20;;;13.90;99.90;;;;;;5048427;28;20399;-70
2021/07/21 02:32:29;;;;;;;7.17;6.47;;;13.90;99.90;;;;;;5048431;28;20183;-69
2021/07/21 02:34:55;;;;;;;7.30;5.60;;;13.90;99.90;;;;;;5065179;28;20172;-70
2021/07/21 02:37:21;;;;;;;9.03;5.17;;;13.80;99.90;;;;;;5044990;28;20505;-69
2021/07/21 02:39:49;;;;;;;9.17;5.40;;;13.80;99.90;;;;;;5055023;28;20398;-69
2021/07/21 02:42:16;;;;;;;6.40;5.70;;;13.80;99.90;;;;;;5054730;28;20164;-70
2021/07/21 02:44:43;;;;;;;9.27;6.90;;;13.80;99.90;;;;;;5054793;28;20453;-70
2021/07/21 02:47:09;;;;;;;9.00;6.50;;;13.80;99.90;;;;;;5054965;28;20389;-69
2021/07/21 02:49:35;;;;;;;8.30;6.50;;;13.80;99.90;;;;;;5055937;28;20879;-69
2021/07/21 02:52:11;;;;;;;8.60;6.73;;;13.70;99.90;;;;;;5054676;28;20394;-70
2021/07/21 02:54:46;;;;;;;10.37;7.63;;;13.70;99.90;;;;;;5037958;28;20259;-69
2021/07/21 02:57:21;;;;;;;8.50;6.33;;;13.70;99.90;;;;;;5034742;28;20900;-70
2021/07/21 02:59:52;;;;;;;9.70;6.97;;;13.70;99.90;;;;;;5034410;28;20435;-69
2021/07/21 03:02:22;;;;;;;9.80;6.27;;;13.70;99.90;;;;;;5035086;28;20450;-69
2021/07/21 03:04:50;;;;;;;8.20;6.43;;;13.70;99.90;;;;;;5035018;28;20447;-70
2021/07/21 03:07:17;;;;;;;6.90;5.70;;;13.70;99.90;;;;;;5034558;28;20818;-70
2021/07/21 03:09:43;;;;;;;8.73;6.63;;;13.70;99.90;;;;;;5035006;28;20400;-70
2021/07/21 03:12:11;;;;;;;6.67;5.90;;;13.70;99.90;;;;;;5043019;28;20776;-70
2021/07/21 03:14:40;;;;;;;9.37;6.77;;;13.60;99.90;;;;;;5054670;28;20422;-69
2021/07/21 03:17:07;;;;;;;6.23;5.27;;;13.60;99.90;;;;;;5054842;28;20406;-69
2021/07/21 03:19:35;;;;;;;8.37;5.43;;;13.60;99.90;;;;;;5054370;28;20399;-70
2021/07/21 03:22:02;;;;;;;9.67;5.87;;;13.60;99.90;;;;;;5054176;28;20485;-70
2021/07/21 03:24:28;;;;;;;7.93;5.77;;;13.60;99.90;;;;;;5054030;28;20458;-70
2021/07/21 03:26:55;;;;;;;6.77;5.63;;;13.50;99.90;;;;;;5051197;28;20411;-69
2021/07/21 03:29:21;;;;;;;7.47;6.00;;;13.50;99.90;;;;;;5034800;28;20422;-69
2021/07/21 03:31:47;;;;;;;8.97;6.53;;;13.50;99.90;;;;;;5035100;28;20881;-70
2021/07/21 03:34:14;;;;;;;6.83;5.93;;;13.50;99.90;;;;;;5043964;28;20410;-69
2021/07/21 03:36:45;;;;;;;8.00;5.60;;;13.40;99.90;;;;;;5048574;28;20439;-70
2021/07/21 03:39:13;;;;;;;6.33;5.27;;;13.40;99.90;;;;;;5034038;28;20403;-70
2021/07/21 03:41:39;;;;;;;6.90;5.30;;;13.50;99.90;;;;;;5050628;28;20425;-70
2021/07/21 03:44:07;;;;;;;6.43;5.83;;;13.40;99.90;;;;;;5049135;28;20462;-69
2021/07/21 03:46:36;;;;;;;7.83;6.40;;;13.40;99.90;;;;;;5034785;28;21041;-70
2021/07/21 03:49:03;;;;;;;7.77;6.67;;;13.40;99.90;;;;;;5033150;28;20388;-70
2021/07/21 03:51:32;;;;;;;9.17;6.10;;;13.40;99.90;;;;;;5033743;28;20846;-70
2021/07/21 03:53:58;;;;;;;7.27;5.77;;;13.40;99.90;;;;;;5033657;28;20427;-69
2021/07/21 03:56:25;;;;;;;8.00;6.50;;;13.40;99.90;;;;;;5033597;28;20392;-69
2021/07/21 03:58:51;;;;;;;8.40;6.37;;;13.40;99.90;;;;;;5034036;28;20776;-69
2021/07/21 04:01:17;;;;;;;7.80;6.37;;;13.40;99.90;;;;;;5035788;28;20430;-70
2021/07/21 04:03:44;;;;;;;6.53;5.63;;;13.40;99.90;;;;;;5035011;28;20448;-70
2021/07/21 04:06:10;;;;;;;7.47;5.93;;;13.40;99.90;;;;;;5053403;28;20394;-69
2021/07/21 04:08:38;;;;;;;8.87;6.20;;;13.40;99.90;;;;;;5053311;28;20433;-69
2021/07/21 04:11:04;;;;;;;8.50;5.90;;;13.30;99.90;;;;;;5053196;28;20445;-70
2021/07/21 04:13:33;;;;;;;8.87;6.30;;;13.30;99.90;;;;;;5053281;28;20426;-69
2021/07/21 04:15:59;;;;;;;8.03;6.37;;;13.40;99.90;;;;;;5054669;28;20391;-69
2021/07/21 04:18:25;;;;;;;8.93;6.07;;;13.30;99.90;;;;;;5046384;28;20422;-70
2021/07/21 04:20:52;;;;;;;8.73;6.60;;;13.30;99.90;;;;;;5049273;28;20418;-71
2021/07/21 04:23:20;;;;;;;8.27;6.07;;;13.30;99.90;;;;;;5053727;28;20524;-69
2021/07/21 04:25:50;;;;;;;7.03;5.67;;;13.30;99.90;;;;;;5057965;28;20423;-69
2021/07/21 04:28:15;;;;;;;8.20;6.50;;;13.40;99.90;;;;;;5051532;28;20421;-70
2021/07/21 04:30:42;;;;;;;7.30;6.00;;;13.30;99.90;;;;;;5051542;28;20415;-70
2021/07/21 04:33:08;;;;;;;8.37;7.03;;;13.40;99.90;;;;;;5037943;28;20267;-70
2021/07/21 04:35:33;;;;;;;8.80;6.60;;;13.40;99.90;;;;;;5033588;28;20462;-70
2021/07/21 04:38:00;;;;;;;6.80;5.90;;;13.40;99.90;;;;;;5032486;28;20157;-69
2021/07/21 04:40:25;;;;;;;8.20;6.73;;;13.40;99.90;;;;;;5032651;28;20180;-70
2021/07/21 04:42:51;;;;;;;7.53;6.23;;;13.40;99.90;;;;;;5032867;28;20396;-70
2021/07/21 04:45:17;;;;;;;9.87;6.03;;;13.40;99.90;;;;;;5033365;28;20443;-69
2021/07/21 04:47:43;;;;;;;7.90;6.23;;;13.40;99.90;;;;;;5032454;28;20157;-70
2021/07/21 04:50:13;;;;;;;7.60;6.40;;;13.40;99.90;;;;;;5032547;28;20243;-69
2021/07/21 04:52:41;;;;;;;7.80;6.30;;;13.50;99.90;;;;;;5033962;28;20404;-69
2021/07/21 04:55:07;;;;;;;9.63;6.70;;;13.50;99.90;;;;;;5032379;28;20432;-70
2021/07/21 04:57:33;;;;;;;7.87;6.97;;;13.50;99.90;;;;;;5032807;28;20392;-69
2021/07/21 04:59:58;;;;;;;7.77;6.07;;;13.60;99.90;;;;;;5032699;28;20439;-70
2021/07/21 05:02:24;;;;;;;6.93;5.80;;;13.60;99.90;;;;;;5032310;28;20631;-70
2021/07/21 05:04:49;;;;;;;7.53;6.73;;;13.60;99.90;;;;;;5050765;28;20219;-70
2021/07/21 05:07:16;;;;;;;8.70;6.80;;;13.60;99.90;;;;;;5046141;28;20615;-70
2021/07/21 05:09:42;;;;;;;6.93;6.13;;;13.60;99.90;;;;;;5033569;28;20189;-69
2021/07/21 05:12:08;;;;;;;10.10;6.67;;;13.60;99.90;;;;;;5041470;28;20489;-70
2021/07/21 05:14:34;;;;;;;8.80;6.87;;;13.70;99.90;;;;;;5053313;28;20910;-70
2021/07/21 05:16:59;;;;;;;10.03;6.23;;;13.70;99.90;;;;;;5052604;28;20411;-70
2021/07/21 05:19:25;;;;;;;7.10;6.23;;;13.80;99.90;;;;;;5052378;28;20156;-70
2021/07/21 05:21:52;;;;;;;10.27;6.73;;;13.80;99.90;;;;;;5052073;28;20187;-69
2021/07/21 05:24:19;;;;;;;9.30;6.07;;;13.90;99.90;;;;;;5051568;28;20204;-69
2021/07/21 05:26:47;;;;;;;7.03;5.10;;;13.90;99.90;;;;;;5048535;28;20406;-70
2021/07/21 05:29:13;;;;;;;7.77;6.07;;;13.90;99.90;;;;;;5052374;28;20414;-70
2021/07/21 05:31:39;;;;;;;9.50;6.20;;;14.00;99.90;;;;;;5051952;28;20411;-70
2021/07/21 05:34:05;;;;;;;5.83;5.17;;;14.00;99.90;;;;;;5052326;28;20506;-70
2021/07/21 05:36:35;;;;;;;8.33;5.93;;;14.10;99.90;;;;;;5039817;28;20980;-69
2021/07/21 05:39:05;;;;;;;11.90;6.77;;;14.10;99.90;;;;;;5032387;28;20154;-69
2021/07/21 05:41:31;;;;;;;9.13;6.80;;;14.20;99.90;;;;;;5032623;28;20438;-70
2021/07/21 05:43:57;;;;;;;13.40;6.20;;;14.30;99.90;;;;;;5033371;28;20918;-69
2021/07/21 05:46:23;;;;;;;8.07;6.13;;;14.30;99.90;;;;;;5032489;28;20639;-69
2021/07/21 05:48:49;;;;;;;7.90;6.40;;;14.40;99.90;;;;;;5032316;28;20910;-69
2021/07/21 05:51:14;;;;;;;7.93;6.40;;;14.40;99.90;;;;;;5036029;28;20433;-69
2021/07/21 05:53:40;;;;;;;7.67;6.40;;;14.50;99.90;;;;;;5043671;28;20184;-70
2021/07/21 05:56:06;;;;;;;9.27;7.20;;;14.60;99.90;;;;;;5047764;28;20185;-70
2021/07/21 05:58:32;;;;;;;9.57;7.33;;;14.70;99.90;;;;;;5046465;28;20910;-70
2021/07/21 06:00:57;;;;;;;12.20;7.63;;;14.80;99.90;;;;;;5042381;28;20260;-70
2021/07/21 06:03:24;;;;;;;7.60;6.07;;;14.90;99.90;;;;;;5031977;28;20482;-70
2021/07/21 06:05:50;;;;;;;7.40;6.00;;;15.00;99.90;;;;;;5037283;28;20171;-70
2021/07/21 06:08:16;;;;;;;10.13;7.17;;;15.00;99.90;;;;;;5041071;28;20425;-70
2021/07/21 06:10:42;;;;;;;12.30;6.67;;;15.10;99.90;;;;;;5047659;28;20475;-70
2021/07/21 06:13:11;;;;;;;11.87;7.90;;;15.20;99.90;;;;;;5047348;28;20524;-70
2021/07/21 06:15:37;;;;;;;7.13;6.10;;;15.30;99.90;;;;;;5038894;28;20176;-70
2021/07/21 06:18:03;;;;;;;9.40;7.10;;;15.40;99.90;;;;;;5041304;28;20939;-70
2021/07/21 06:20:29;;;;;;;8.80;6.90;;;15.50;99.90;;;;;;5040234;28;20441;-70
2021/07/21 06:22:54;;;;;;;8.50;7.17;;;15.60;99.90;;;;;;5053896;28;20218;-70
2021/07/21 06:25:20;;;;;;;16.20;6.47;;;15.70;99.90;;;;;;5055899;28;20286;-70
2021/07/21 06:27:46;;;;;;;6.97;6.10;;;15.80;99.90;;;;;;5043386;28;20186;-70
2021/07/21 06:30:12;;;;;;;10.03;7.20;;;15.90;99.90;;;;;;5036195;28;20497;-70
2021/07/21 06:32:38;;;;;;;7.87;5.10;;;16.00;99.90;;;;;;5035144;28;20427;-70
2021/07/21 06:35:05;;;;;;;10.97;6.77;;;16.10;99.90;;;;;;5037142;28;20439;-70
2021/07/21 06:37:31;;;;;;;8.00;7.20;;;16.20;99.90;;;;;;5053094;28;20522;-70
2021/07/21 06:39:56;;;;;;;7.90;6.07;;;16.30;99.90;;;;;;5041058;28;20435;-70
2021/07/21 06:42:22;;;;;;;8.63;6.43;;;16.40;99.90;;;;;;5055285;28;20176;-70
2021/07/21 06:44:48;;;;;;;9.20;6.20;;;16.60;99.90;;;;;;5034792;28;20201;-70
2021/07/21 06:47:13;;;;;;;7.70;6.13;;;16.70;99.90;;;;;;5039405;28;20653;-70
2021/07/21 06:49:39;;;;;;;7.43;6.30;;;16.80;99.90;;;;;;5047665;28;20541;-70
2021/07/21 06:52:04;;;;;;;10.13;5.80;;;16.90;99.90;;;;;;5038437;28;20184;-70
2021/07/21 06:54:30;;;;;;;7.57;5.83;;;17.00;99.90;;;;;;5038501;28;20642;-70
2021/07/21 06:56:56;;;;;;;7.83;5.60;;;17.20;99.90;;;;;;5041702;28;20168;-70
2021/07/21 06:59:21;;;;;;;7.80;5.70;;;17.20;99.90;;;;;;5042173;28;20283;-70
2021/07/21 07:01:47;;;;;;;8.30;6.60;;;17.40;99.90;;;;;;5034252;28;20239;-70
2021/07/21 07:04:13;;;;;;;7.47;6.53;;;17.50;99.90;;;;;;5049525;28;20256;-70
2021/07/21 07:06:38;;;;;;;6.37;4.90;;;17.60;99.90;;;;;;5050990;28;20168;-70
2021/07/21 07:09:04;;;;;;;5.97;5.00;;;17.70;99.90;;;;;;5043357;28;20549;-70
2021/07/21 07:11:30;;;;;;;12.47;6.87;;;17.80;99.90;;;;;;5047781;28;20677;-70
2021/07/21 07:13:55;;;;;;;8.40;5.13;;;17.90;99.90;;;;;;5039348;28;20185;-70
2021/07/21 07:16:21;;;;;;;5.90;5.23;;;18.10;99.90;;;;;;5036235;28;20201;-70
2021/07/21 07:18:46;;;;;;;6.27;4.70;;;18.20;99.90;;;;;;5042164;28;20549;-70
2021/07/21 07:21:12;;;;;;;7.00;5.03;;;18.40;99.90;;;;;;5040101;28;20241;-70
2021/07/21 07:23:37;;;;;;;7.10;4.63;;;18.50;99.90;;;;;;5050992;28;20188;-70
2021/07/21 07:26:03;;;;;;;7.90;6.20;;;18.70;99.90;;;;;;5040812;28;20211;-70
2021/07/21 07:28:29;;;;;;;7.40;4.23;;;18.90;99.90;;;;;;5034032;28;20185;-70
2021/07/21 07:30:55;;;;;;;10.20;5.10;;;19.00;99.90;;;;;;5037291;28;20787;-70
2021/07/21 07:33:20;;;;;;;7.07;4.30;;;19.20;99.90;;;;;;5050133;28;20253;-70
2021/07/21 07:35:46;;;;;;;6.70;4.60;;;19.50;99.90;;;;;;5051590;28;20172;-69
2021/07/21 07:38:12;;;;;;;5.63;4.20;;;19.90;99.90;;;;;;5052437;28;20184;-70
2021/07/21 07:40:40;;;;;;;4.67;4.07;;;20.80;99.90;;;;;;5047352;28;20234;-69
2021/07/21 07:43:06;;;;;;;4.53;4.00;;;22.10;99.90;;;;;;5034592;28;20536;-70
2021/07/21 07:45:32;;;;;;;5.80;2.90;;;23.30;99.20;;;;;;5034152;28;20533;-70
2021/07/21 07:47:57;;;;;;;4.83;3.60;;;24.50;95.50;;;;;;5039895;28;20541;-70
2021/07/21 07:50:23;;;;;;;3.63;3.33;;;25.80;86.50;;;;;;5043422;28;20266;-70
2021/07/21 07:52:49;;;;;;;4.57;3.40;;;26.90;80.00;;;;;;5039064;28;20255;-70
2021/07/21 07:55:15;;;;;;;4.20;2.87;;;27.90;71.50;;;;;;5046668;28;20172;-70
2021/07/21 07:57:40;;;;;;;4.57;3.37;;;28.80;62.70;;;;;;5052499;28;20430;-70
2021/07/21 08:00:08;;;;;;;4.77;3.50;;;29.40;57.00;;;;;;5033033;28;20211;-70
2021/07/21 08:02:34;;;;;;;6.77;3.43;;;30.10;58.30;;;;;;5043028;28;20176;-69
2021/07/21 08:04:59;;;;;;;5.97;3.20;;;30.80;55.40;;;;;;5035534;28;20458;-69
2021/07/21 08:07:28;;;;;;;4.70;2.80;;;31.00;51.90;;;;;;5046187;28;20172;-71
2021/07/21 08:09:53;;;;;;;3.73;3.20;;;31.50;52.00;;;;;;5042155;28;20203;-71
2021/07/21 08:12:19;;;;;;;3.37;3.07;;;32.00;49.30;;;;;;5036905;28;20431;-71
2021/07/21 08:14:44;;;;;;;3.83;3.40;;;32.00;48.60;;;;;;5035698;28;20191;-69
2021/07/21 08:17:10;;;;;;;5.33;3.53;;;31.40;47.40;;;;;;5034333;28;20176;-69
2021/07/21 08:19:38;;;;;;;3.57;3.23;;;30.60;48.80;;;;;;5033983;28;20177;-69
2021/07/21 08:22:04;;;;;;;6.10;3.87;;;29.60;48.80;;;;;;5036418;28;20646;-69
2021/07/21 08:24:29;;;;;;;4.03;3.10;;;29.10;51.20;;;;;;5059721;28;20472;-69
2021/07/21 08:26:55;;;;;;;7.17;3.67;;;29.20;50.90;;;;;;5040654;28;20206;-69
2021/07/21 08:29:20;;;;;;;5.40;3.27;;;29.00;50.30;;;;;;5057756;28;20180;-69
2021/07/21 08:31:46;;;;;;;6.37;3.60;;;28.50;52.40;;;;;;5049930;28;20220;-69
2021/07/21 08:34:12;;;;;;;3.37;3.00;;;27.90;52.10;;;;;;5041800;28;20233;-71
2021/07/21 08:36:38;;;;;;;5.00;3.33;;;27.20;53.00;;;;;;5036648;28;20635;-71
2021/07/21 08:39:05;;;;;;;4.17;3.50;;;27.30;55.80;;;;;;5039306;28;20484;-71
2021/07/21 08:41:33;;;;;;;5.00;3.10;;;28.30;53.80;;;;;;5042689;28;20471;-71
2021/07/21 08:43:59;;;;;;;5.77;4.03;;;29.20;51.10;;;;;;5049311;28;20500;-71
2021/07/21 08:46:24;;;;;;;3.70;3.13;;;29.90;49.60;;;;;;5034767;28;20517;-69
2021/07/21 08:48:52;;;;;;;4.50;3.50;;;29.90;50.20;;;;;;5049041;28;20180;-69
2021/07/21 08:51:21;;;;;;;5.30;3.80;;;29.50;50.20;;;;;;5038506;28;20553;-69
2021/07/21 08:53:48;;;;;;;4.93;3.20;;;29.10;51.30;;;;;;5032641;28;20502;-69
2021/07/21 08:56:15;;;;;;;4.13;3.60;;;29.00;51.80;;;;;;5039021;28;20431;-69
2021/07/21 08:58:44;;;;;;;5.23;4.03;;;28.70;52.10;;;;;;5033755;28;20825;-69
2021/07/21 09:01:10;;;;;;;5.60;2.77;;;28.10;52.40;;;;;;5040782;28;20514;-69
2021/07/21 09:03:35;;;;;;;9.80;3.77;;;27.60;52.90;;;;;;5038421;28;20513;-69
2021/07/21 09:06:01;;;;;;;4.20;3.70;;;27.20;54.30;;;;;;5038618;28;20545;-69
2021/07/21 09:08:30;;;;;;;4.00;3.60;;;26.80;55.40;;;;;;5037491;28;20168;-71
2021/07/21 09:10:55;;;;;;;4.67;4.17;;;26.40;56.80;;;;;;5041402;28;20259;-71
2021/07/21 09:13:22;;;;;;;7.10;3.53;;;26.10;56.90;;;;;;5047124;28;20886;-71
2021/07/21 09:15:48;;;;;;;4.40;3.53;;;25.80;57.80;;;;;;5035362;28;20224;-71
2021/07/21 09:18:16;;;;;;;4.20;3.20;;;25.50;58.30;;;;;;5047355;28;20441;-71
2021/07/21 09:23:19;;;;;;;4.50;3.40;;;25.40;58.20;;;;;;5075300;27;20573;-70
2021/07/21 09:25:45;;;;;;;8.37;5.30;;;25.20;59.10;;;;;;5075189;28;20565;-70
2021/07/21 09:28:13;;;;;;;5.53;4.13;;;25.20;59.10;;;;;;5082874;28;20190;-70
2021/07/21 09:30:44;;;;;;;4.10;3.70;;;25.20;60.40;;;;;;5089953;28;20274;-70
2021/07/21 09:33:11;;;;;;;5.13;4.20;;;25.10;58.50;;;;;;5090001;28;20547;-70
2021/07/21 09:35:43;;;;;;;5.40;4.80;;;25.10;59.40;;;;;;5073862;28;20434;-70
2021/07/21 09:38:12;;;;;;;7.20;4.70;;;25.00;58.30;;;;;;5071308;28;20433;-70
2021/07/21 09:40:43;;;;;;;6.10;4.17;;;24.90;61.60;;;;;;5082716;28;20945;-70
2021/07/21 09:43:12;;;;;;;4.60;3.70;;;24.80;61.10;;;;;;5055374;28;20968;-70
2021/07/21 09:45:39;;;;;;;4.47;3.80;;;24.70;62.80;;;;;;5069806;28;20432;-70
2021/07/21 09:48:05;;;;;;;4.80;3.97;;;24.70;62.80;;;;;;5070951;28;20433;-70
2021/07/21 09:50:31;;;;;;;6.73;4.90;;;24.70;62.30;;;;;;5067120;28;20444;-70
2021/07/21 09:53:04;;;;;;;6.50;4.50;;;24.60;63.40;;;;;;5064966;28;20266;-70
2021/07/21 09:55:34;;;;;;;4.27;3.63;;;24.50;64.60;;;;;;5077740;28;20965;-70
2021/07/21 09:58:18;;;;;;;6.27;4.00;;;24.40;63.30;;;;;;5074906;28;20423;-70
2021/07/21 10:00:46;;;;;;;7.43;4.33;;;24.30;61.30;;;;;;5035331;28;20529;-70
2021/07/21 10:08:45;;;;;;;6.77;4.20;;;24.30;62.70;;;;;;5052045;28;20552;-70
2021/07/21 10:11:31;;;;;;;6.40;3.90;;;24.10;67.20;;;;;;5059850;28;20517;-70
2021/07/21 10:19:24;;;;;;;5.40;4.40;;;24.30;63.60;;;;;;5060655;28;21013;-69
2021/07/21 10:24:33;;;;;;;4.97;4.47;;;24.40;64.30;;;;;;5059509;28;20541;-69
2021/07/21 10:26:59;;;;;;;5.13;4.60;;;24.60;61.70;;;;;;5045511;28;20418;-70
2021/07/21 10:29:26;;;;;;;5.00;4.40;;;24.70;62.00;;;;;;5050062;28;20892;-69
2021/07/21 10:31:52;;;;;;;6.30;4.30;;;24.70;62.10;;;;;;5045947;28;20488;-70
2021/07/21 10:34:19;;;;;;;4.93;4.43;;;24.60;64.20;;;;;;5044629;28;20417;-69
2021/07/21 10:36:45;;;;;;;4.77;3.90;;;24.60;62.60;;;;;;5035628;28;20442;-70
2021/07/21 10:39:13;;;;;;;7.40;4.57;;;24.60;64.00;;;;;;5031293;28;20796;-69
2021/07/21 10:41:40;;;;;;;6.97;5.23;;;24.60;62.40;;;;;;5037921;28;20426;-69
2021/07/21 10:44:09;;;;;;;6.03;4.57;;;24.50;60.10;;;;;;5049388;28;20458;-70
2021/07/21 10:49:21;;;;;;;4.67;4.23;;;24.40;61.80;;;;;;5062594;28;20650;-70
2021/07/21 10:54:55;;;;;;;7.10;4.60;;;24.40;62.70;;;;;;5109119;27;20539;-70
2021/07/21 11:00:06;;;;;;;5.17;4.17;;;24.60;61.50;;;;;;5091136;28;20523;-70
2021/07/21 11:02:32;;;;;;;5.30;4.23;;;24.70;64.60;;;;;;5089938;28;20392;-70
2021/07/21 11:04:57;;;;;;;9.40;5.13;;;24.70;63.10;;;;;;5089653;28;20419;-70
2021/07/21 11:07:51;;;;;;;5.73;4.40;;;24.80;61.90;;;;;;5078475;28;20240;-70
2021/07/21 11:10:30;;;;;;;7.10;4.60;;;24.80;62.40;;;;;;5068456;28;20643;-69
2021/07/21 11:12:56;;;;;;;5.70;4.90;;;24.80;63.50;;;;;;5088819;28;20456;-70
2021/07/21 11:21:14;;;;;;;5.37;4.50;;;24.90;61.80;;;;;;5069779;28;20520;-70
2021/07/21 11:32:01;;;;;;;5.30;4.43;;;24.90;63.00;;;;;;5069659;28;20630;-69
2021/07/21 11:37:15;;;;;;;5.40;4.40;;;24.60;62.60;;;;;;5069945;28;20932;-70
2021/07/21 11:53:02;;;;;;;5.47;4.40;;;24.60;63.30;;;;;;5069817;28;20522;-70
2021/07/21 11:55:30;;;;;;;5.33;3.63;;;24.90;65.90;;;;;;5070051;28;20412;-70
2021/07/21 11:57:56;;;;;;;5.27;4.20;;;25.00;64.60;;;;;;5060087;28;20976;-70
2021/07/21 12:00:24;;;;;;;5.50;4.40;;;25.10;61.50;;;;;;5053322;28;20436;-70
2021/07/21 12:03:06;;;;;;;5.73;4.40;;;25.10;61.50;;;;;;5047252;28;20437;-70
2021/07/21 12:05:33;;;;;;;6.90;3.97;;;25.10;63.70;;;;;;5049983;28;20517;-70
2021/07/21 12:08:00;;;;;;;5.93;4.27;;;25.10;61.90;;;;;;5067801;28;20398;-70
2021/07/21 12:10:26;;;;;;;6.00;4.70;;;25.10;61.10;;;;;;5068735;28;20390;-70
2021/07/21 12:12:54;;;;;;;6.77;5.03;;;25.10;62.40;;;;;;5067782;28;20830;-70
2021/07/21 12:15:19;;;;;;;7.00;4.87;;;25.10;62.10;;;;;;5062898;28;20405;-70
2021/07/21 12:17:46;;;;;;;6.90;4.20;;;25.20;63.20;;;;;;5065373;28;20418;-70
2021/07/21 12:20:14;;;;;;;5.10;4.50;;;25.20;65.00;;;;;;5069366;28;20160;-70
2021/07/21 12:22:42;;;;;;;5.83;4.50;;;25.30;63.60;;;;;;5069454;28;20420;-70
2021/07/21 12:25:11;;;;;;;6.00;4.90;;;25.20;61.30;;;;;;5071125;28;20482;-70
2021/07/21 12:30:18;;;;;;;6.83;5.20;;;25.00;62.30;;;;;;5069909;28;20512;-70
2021/07/21 12:32:46;;;;;;;7.10;5.63;;;24.80;63.80;;;;;;5052205;28;20404;-70
2021/07/21 12:35:12;;;;;;;7.17;5.33;;;24.70;62.60;;;;;;5049595;28;20410;-70
2021/07/21 12:37:43;;;;;;;7.37;5.50;;;24.60;64.40;;;;;;5050053;28;20390;-70
2021/07/21 12:40:12;;;;;;;7.43;5.40;;;24.40;66.90;;;;;;5051859;28;20461;-71
2021/07/21 12:42:37;;;;;;;9.23;6.47;;;24.30;63.30;;;;;;5048763;28;20891;-70
2021/07/21 12:45:08;;;;;;;7.60;5.27;;;24.20;63.20;;;;;;5064741;28;20442;-70
2021/07/21 12:47:37;;;;;;;7.40;5.97;;;24.00;64.30;;;;;;5052014;28;20635;-71
2021/07/21 12:52:51;;;;;;;6.77;5.43;;;24.00;65.00;;;;;;5088499;27;20550;-70
2021/07/21 12:55:29;;;;;;;6.23;5.60;;;24.00;66.60;;;;;;5087343;28;20527;-70
2021/07/21 12:57:58;;;;;;;6.20;5.17;;;24.00;63.40;;;;;;5081772;28;20464;-70
2021/07/21 13:00:27;;;;;;;6.47;5.53;;;24.10;65.80;;;;;;5084999;28;20490;-70
2021/07/21 13:02:59;;;;;;;7.77;5.93;;;24.10;65.30;;;;;;5083501;28;20436;-70
2021/07/21 13:10:42;;;;;;;6.77;5.70;;;23.90;66.50;;;;;;5067783;28;20626;-70
2021/07/21 13:13:23;;;;;;;5.13;4.20;;;23.90;64.80;;;;;;5058310;28;20430;-71
2021/07/21 13:16:07;;;;;;;7.53;4.70;;;23.80;63.10;;;;;;5066955;28;20422;-70
2021/07/21 13:18:42;;;;;;;5.60;4.90;;;23.70;67.40;;;;;;5063742;28;20520;-70
2021/07/21 13:27:03;;;;;;;6.40;4.47;;;23.80;66.70;;;;;;5069413;28;20540;-70
2021/07/21 13:29:30;;;;;;;6.33;4.93;;;24.00;67.40;;;;;;5062203;28;20428;-70
2021/07/21 13:31:56;;;;;;;5.80;4.80;;;24.00;65.90;;;;;;5066695;28;20418;-70
2021/07/21 13:34:26;;;;;;;5.53;3.70;;;24.00;66.30;;;;;;5066328;28;20497;-70
2021/07/21 13:36:53;;;;;;;4.47;3.83;;;24.10;66.90;;;;;;5064412;28;20628;-70
2021/07/21 13:39:22;;;;;;;7.77;3.93;;;24.10;66.50;;;;;;5057494;28;20530;-70
2021/07/21 13:41:59;;;;;;;5.60;4.53;;;24.20;69.90;;;;;;5068718;28;20425;-71
2021/07/21 13:47:03;;;;;;;6.27;5.33;;;24.30;68.10;;;;;;5054871;28;20692;-69
2021/07/21 13:49:40;;;;;;;6.43;4.77;;;24.20;66.90;;;;;;5057589;28;20558;-70
2021/07/21 13:52:09;;;;;;;5.27;4.07;;;24.10;68.60;;;;;;5060601;28;20437;-70
2021/07/21 13:54:37;;;;;;;5.43;3.80;;;24.10;69.10;;;;;;5056254;28;20443;-70
2021/07/21 13:57:05;;;;;;;3.57;3.20;;;24.00;68.80;;;;;;5062261;28;20957;-70
2021/07/21 13:59:31;;;;;;;4.37;3.70;;;24.00;68.60;;;;;;5058559;28;20456;-70
2021/07/21 14:01:58;;;;;;;4.90;3.77;;;23.90;68.30;;;;;;5049196;28;20513;-70
2021/07/21 14:04:24;;;;;;;4.93;3.90;;;23.90;68.80;;;;;;5061290;28;20902;-69
2021/07/21 14:06:51;;;;;;;5.60;3.90;;;23.90;72.10;;;;;;5060881;28;21029;-70
2021/07/21 14:09:18;;;;;;;5.50;4.30;;;23.90;71.60;;;;;;5051677;28;20974;-70
2021/07/21 14:11:47;;;;;;;5.20;4.37;;;24.00;69.60;;;;;;5045306;28;20441;-70
2021/07/21 14:14:13;;;;;;;4.80;4.17;;;24.00;70.00;;;;;;5051487;28;20527;-70
2021/07/21 14:16:40;;;;;;;4.33;3.33;;;24.10;70.40;;;;;;5048360;28;20918;-70